Time;durP1;ratioP1;P1;durP2;ratioP2;P2;SDS_P1;SDS_P2;PMS_P1;PMS_P2;Temp;Humidity;BMP_temperature;BMP_pressure;BME280_temperature;BME280_humidity;BME280_pressure;Samples;Min_cycle;Max_cycle;Signal;HPM_P1;HPM_P2
2023/03/12 00:06:03;;;;;;;7.15;3.50;;;-0.50;99.90;;;;;;15415793;23;20020;-38
2023/03/12 00:12:11;;;;;;;7.07;3.42;;;-0.60;99.90;;;;;;15422719;23;20060;-38
2023/03/12 00:18:13;;;;;;;5.60;2.60;;;-0.70;99.90;;;;;;15418182;23;20056;-37
2023/03/12 00:24:15;;;;;;;4.95;2.55;;;-0.60;99.90;;;;;;15418830;23;20100;-38
2023/03/12 00:30:17;;;;;;;5.63;2.47;;;-0.40;99.90;;;;;;15422729;23;20509;-37
2023/03/12 00:36:23;;;;;;;8.57;2.65;;;-0.30;99.90;;;;;;15423968;23;20103;-37
2023/03/12 00:42:25;;;;;;;7.05;2.70;;;-0.20;99.90;;;;;;15418481;23;20099;-37
2023/03/12 00:48:27;;;;;;;4.95;2.15;;;-0.10;99.90;;;;;;15392397;23;20497;-38
2023/03/12 00:54:29;;;;;;;6.35;2.65;;;-0.20;99.90;;;;;;15415787;23;20152;-38
2023/03/12 01:00:31;;;;;;;7.53;3.47;;;-0.20;99.90;;;;;;15419716;23;20021;-38
2023/03/12 01:06:33;;;;;;;7.07;2.30;;;-0.30;99.90;;;;;;15392469;23;20086;-37
2023/03/12 01:12:35;;;;;;;8.57;2.75;;;-0.20;99.90;;;;;;15418639;23;20020;-38
2023/03/12 01:18:38;;;;;;;8.32;3.08;;;-0.20;99.90;;;;;;15423187;23;20059;-37
2023/03/12 01:24:39;;;;;;;9.10;2.92;;;-0.10;99.90;;;;;;15416933;23;20636;-38
2023/03/12 01:30:41;;;;;;;4.35;2.50;;;-0.10;99.90;;;;;;15391984;23;20070;-38
2023/03/12 01:36:45;;;;;;;8.18;3.35;;;-0.20;99.90;;;;;;15423406;23;20115;-38
2023/03/12 01:42:55;;;;;;;9.10;3.20;;;-0.20;99.90;;;;;;15418618;23;20024;-38
2023/03/12 01:49:10;;;;;;;8.95;3.50;;;-0.20;99.90;;;;;;15420030;23;20435;-37
2023/03/12 01:55:15;;;;;;;6.75;3.42;;;-0.20;99.90;;;;;;15420309;23;20025;-38
2023/03/12 02:01:18;;;;;;;7.97;3.00;;;-0.20;99.90;;;;;;15419985;23;20151;-36
2023/03/12 02:07:20;;;;;;;7.40;2.90;;;-0.30;99.90;;;;;;15423730;23;20048;-38
2023/03/12 02:13:22;;;;;;;5.43;2.72;;;-0.30;99.90;;;;;;15423197;23;20024;-39
2023/03/12 02:19:40;;;;;;;7.13;2.90;;;-0.30;99.90;;;;;;15423627;23;20471;-38
2023/03/12 02:25:49;;;;;;;6.30;2.90;;;-0.20;99.90;;;;;;15423037;23;20025;-38
2023/03/12 02:31:54;;;;;;;6.45;2.92;;;-0.20;99.90;;;;;;15392009;23;20032;-38
2023/03/12 02:37:56;;;;;;;6.70;3.67;;;-0.20;99.90;;;;;;15422514;23;20052;-38
2023/03/12 02:44:07;;;;;;;5.05;2.95;;;-0.20;99.90;;;;;;15415090;23;20036;-37
2023/03/12 02:50:09;;;;;;;9.55;3.10;;;-0.20;99.90;;;;;;15419767;23;20100;-38
2023/03/12 02:56:11;;;;;;;4.78;2.65;;;-0.20;99.90;;;;;;15417255;23;20021;-38
2023/03/12 03:02:13;;;;;;;8.93;3.60;;;-0.20;99.90;;;;;;15415807;23;20025;-38
2023/03/12 03:08:14;;;;;;;7.95;3.00;;;-0.20;99.90;;;;;;15419600;23;20024;-37
2023/03/12 03:14:17;;;;;;;6.13;3.20;;;-0.20;99.90;;;;;;15419694;23;20024;-38
2023/03/12 03:20:20;;;;;;;6.53;2.85;;;-0.20;99.90;;;;;;15418538;23;20021;-38
2023/03/12 03:26:23;;;;;;;8.65;2.90;;;-0.20;99.90;;;;;;15417628;23;20044;-38
2023/03/12 03:32:25;;;;;;;6.10;3.20;;;-0.30;99.90;;;;;;15419826;23;20024;-38
2023/03/12 03:38:28;;;;;;;6.38;2.90;;;-0.30;99.90;;;;;;15420338;23;20024;-38
2023/03/12 03:44:30;;;;;;;6.18;2.63;;;-0.30;99.90;;;;;;15415248;23;20028;-37
2023/03/12 03:50:33;;;;;;;6.60;2.22;;;-0.20;99.90;;;;;;15416670;23;20459;-38
2023/03/12 03:56:34;;;;;;;7.93;2.08;;;-0.10;99.90;;;;;;15418234;23;20064;-37
2023/03/12 04:02:36;;;;;;;5.57;2.40;;;-0.10;99.90;;;;;;15413633;23;20017;-38
2023/03/12 04:08:39;;;;;;;8.45;2.20;;;0.00;99.90;;;;;;15419047;23;20025;-37
2023/03/12 04:14:41;;;;;;;6.75;2.10;;;0.00;99.90;;;;;;15414106;23;20095;-38
2023/03/12 04:20:44;;;;;;;7.38;2.50;;;0.00;99.90;;;;;;15413076;23;20159;-37
2023/03/12 04:26:46;;;;;;;9.30;2.38;;;-0.10;99.90;;;;;;15411293;23;20020;-37
2023/03/12 04:32:47;;;;;;;5.07;2.30;;;-0.20;99.90;;;;;;15413928;23;20103;-38
2023/03/12 04:38:49;;;;;;;4.88;2.00;;;-0.20;99.90;;;;;;15420506;23;20391;-37
2023/03/12 04:44:51;;;;;;;5.22;1.92;;;-0.20;99.90;;;;;;15420895;23;20021;-38
2023/03/12 04:50:53;;;;;;;7.00;2.30;;;-0.10;99.90;;;;;;15419996;23;20021;-37
2023/03/12 04:56:55;;;;;;;7.35;2.00;;;0.00;99.90;;;;;;15422417;23;20032;-37
2023/03/12 05:02:57;;;;;;;10.13;2.22;;;0.00;99.90;;;;;;15422646;23;20060;-37
2023/03/12 05:09:00;;;;;;;7.95;2.17;;;0.00;99.90;;;;;;15423621;23;20488;-37
2023/03/12 05:15:02;;;;;;;5.53;1.92;;;0.10;99.90;;;;;;15418800;23;20029;-37
2023/03/12 05:21:07;;;;;;;8.52;2.35;;;0.10;99.90;;;;;;15419455;23;20026;-37
2023/03/12 05:27:09;;;;;;;3.95;1.70;;;0.20;99.90;;;;;;15412306;23;20025;-37
2023/03/12 05:33:10;;;;;;;6.65;1.60;;;0.20;99.90;;;;;;15380787;23;20017;-37
2023/03/12 05:39:12;;;;;;;4.72;1.75;;;0.30;99.90;;;;;;15420878;23;20082;-37
2023/03/12 05:45:14;;;;;;;4.50;2.10;;;0.50;99.90;;;;;;15420288;23;20049;-37
2023/03/12 05:51:17;;;;;;;6.20;2.15;;;0.50;99.90;;;;;;15419894;23;20443;-37
2023/03/12 05:57:19;;;;;;;6.28;2.30;;;0.50;99.90;;;;;;15422399;23;20060;-37
2023/03/12 06:03:21;;;;;;;7.60;2.50;;;0.40;99.90;;;;;;15414216;23;20035;-38
2023/03/12 06:09:23;;;;;;;6.57;2.53;;;0.40;99.90;;;;;;15392996;23;20024;-38
2023/03/12 06:15:24;;;;;;;6.38;2.30;;;0.40;99.90;;;;;;15414066;23;20024;-37
2023/03/12 06:21:30;;;;;;;5.88;2.45;;;0.40;99.90;;;;;;15417850;23;20099;-37
2023/03/12 06:27:32;;;;;;;7.25;2.40;;;0.40;99.90;;;;;;15411540;23;20404;-37
2023/03/12 06:33:34;;;;;;;6.93;2.55;;;0.50;99.90;;;;;;15384481;23;20104;-38
2023/03/12 06:39:37;;;;;;;7.45;2.30;;;0.70;99.90;;;;;;15418810;23;20320;-38
2023/03/12 06:45:38;;;;;;;7.32;2.13;;;0.80;99.90;;;;;;15420105;23;20079;-37
2023/03/12 06:51:40;;;;;;;10.00;2.10;;;1.00;99.90;;;;;;15420960;23;20021;-37
2023/03/12 06:57:42;;;;;;;6.38;1.90;;;1.10;99.90;;;;;;15416165;23;20454;-38
2023/03/12 07:03:44;;;;;;;3.33;1.90;;;1.20;99.90;;;;;;15413775;23;20082;-36
2023/03/12 07:09:46;;;;;;;5.20;2.00;;;1.30;99.90;;;;;;15412616;23;20021;-37
2023/03/12 07:15:48;;;;;;;5.55;2.28;;;1.30;99.90;;;;;;15413470;23;20212;-37
2023/03/12 07:21:50;;;;;;;4.63;1.83;;;1.30;99.90;;;;;;15414799;23;20028;-37
2023/03/12 07:27:52;;;;;;;5.28;2.17;;;1.30;99.90;;;;;;15403083;23;20029;-37
2023/03/12 07:33:53;;;;;;;6.82;2.05;;;1.40;99.90;;;;;;15412829;23;20098;-37
2023/03/12 07:39:55;;;;;;;5.97;2.35;;;1.60;99.90;;;;;;15418205;23;20531;-37
2023/03/12 07:45:57;;;;;;;5.55;2.17;;;1.60;99.90;;;;;;15415504;23;20052;-37
2023/03/12 07:51:59;;;;;;;5.03;2.08;;;1.60;99.90;;;;;;15416181;23;20092;-37
2023/03/12 07:58:02;;;;;;;6.40;2.10;;;1.60;99.90;;;;;;15411747;23;20047;-37
2023/03/12 08:04:04;;;;;;;7.72;2.30;;;1.50;99.90;;;;;;15414863;23;20039;-37
2023/03/12 08:10:08;;;;;;;4.60;1.75;;;1.60;99.90;;;;;;15341975;23;20021;-37
2023/03/12 08:16:10;;;;;;;4.35;1.83;;;1.80;99.90;;;;;;15308639;23;20028;-37
2023/03/12 08:22:11;;;;;;;8.10;2.67;;;1.90;99.90;;;;;;15346170;23;20024;-37
2023/03/12 08:28:14;;;;;;;5.72;1.58;;;2.10;99.90;;;;;;15346653;23;20399;-37
2023/03/12 08:34:16;;;;;;;4.47;1.45;;;2.20;99.90;;;;;;15349163;23;20497;-37
2023/03/12 08:40:18;;;;;;;8.10;2.05;;;2.30;99.90;;;;;;15345165;23;20021;-37
2023/03/12 08:46:20;;;;;;;4.93;2.08;;;2.40;99.90;;;;;;15343957;23;20108;-38
2023/03/12 08:52:22;;;;;;;4.72;1.83;;;2.40;99.90;;;;;;15344419;23;20460;-38
2023/03/12 08:58:25;;;;;;;4.40;1.88;;;2.40;99.90;;;;;;15346632;23;20061;-38
2023/03/12 09:04:26;;;;;;;5.43;2.28;;;2.40;99.90;;;;;;15346859;23;20032;-38
2023/03/12 09:10:28;;;;;;;5.40;2.20;;;2.40;99.90;;;;;;15408828;23;20035;-37
2023/03/12 09:16:32;;;;;;;5.85;2.50;;;2.50;99.90;;;;;;15422028;23;20499;-38
2023/03/12 09:22:35;;;;;;;7.78;1.92;;;2.50;99.90;;;;;;15421673;23;20035;-37
2023/03/12 09:28:37;;;;;;;7.00;2.43;;;2.60;99.90;;;;;;15408009;23;20024;-37
2023/03/12 09:34:39;;;;;;;6.57;1.90;;;2.70;99.90;;;;;;15418582;23;20024;-38
2023/03/12 09:40:46;;;;;;;6.47;2.10;;;2.60;99.90;;;;;;15422228;23;20032;-37
2023/03/12 09:46:56;;;;;;;4.90;1.95;;;2.40;99.90;;;;;;15422525;23;20020;-38
2023/03/12 09:53:27;;;;;;;5.15;1.85;;;2.30;99.90;;;;;;15420085;23;20470;-37
2023/03/12 09:59:29;;;;;;;5.32;3.15;;;2.20;99.90;;;;;;15420620;23;20048;-37
2023/03/12 10:05:50;;;;;;;5.32;2.53;;;2.30;99.90;;;;;;15419900;23;20051;-37
2023/03/12 10:12:15;;;;;;;6.25;2.50;;;2.20;99.90;;;;;;15422167;23;20070;-37
2023/03/12 10:18:24;;;;;;;;;;;2.10;99.90;;;;;;15420232;23;20110;-38
2023/03/12 10:24:53;;;;;;;6.30;2.72;;;2.20;99.90;;;;;;15421745;23;20245;-37
2023/03/12 10:31:00;;;;;;;6.55;2.95;;;2.30;99.90;;;;;;15416777;23;20470;-38
2023/03/12 10:37:28;;;;;;;6.75;3.17;;;2.40;99.90;;;;;;15419845;23;20025;-37
2023/03/12 10:43:30;;;;;;;5.03;3.10;;;2.30;99.90;;;;;;15417280;23;20043;-37
2023/03/12 10:49:34;;;;;;;9.43;4.30;;;2.10;99.90;;;;;;15395205;23;20110;-38
2023/03/12 10:55:36;;;;;;;9.55;4.65;;;2.20;99.90;;;;;;15413265;23;20533;-38
2023/03/12 11:01:48;;;;;;;10.55;4.60;;;2.10;99.90;;;;;;15414597;23;20031;-37
2023/03/12 11:07:51;;;;;;;10.43;4.82;;;2.20;99.90;;;;;;15412866;23;20040;-37
2023/03/12 11:14:07;;;;;;;12.05;4.47;;;2.10;99.90;;;;;;15415926;23;20331;-38
2023/03/12 11:20:39;;;;;;;9.50;5.28;;;2.10;99.90;;;;;;15417448;23;20099;-37
2023/03/12 11:26:51;;;;;;;10.70;5.93;;;2.10;99.90;;;;;;15386952;23;20023;-38
2023/03/12 11:32:56;;;;;;;10.45;6.05;;;2.40;99.90;;;;;;15414065;23;20050;-38
2023/03/12 11:39:08;;;;;;;8.68;6.20;;;2.40;99.90;;;;;;15415483;23;20016;-37
2023/03/12 11:45:15;;;;;;;11.55;7.38;;;2.40;99.90;;;;;;15390127;23;20037;-38
2023/03/12 11:51:38;;;;;;;9.25;6.40;;;2.30;99.90;;;;;;15421538;23;20489;-38
2023/03/12 11:58:16;;;;;;;12.75;6.63;;;2.30;99.90;;;;;;15418625;23;20118;-38
2023/03/12 12:04:37;;;;;;;12.07;6.65;;;2.40;99.90;;;;;;15423611;23;20028;-37
2023/03/12 12:10:53;;;;;;;11.30;6.13;;;2.50;99.90;;;;;;15422933;23;20051;-38
2023/03/12 12:17:17;;;;;;;15.20;8.00;;;2.50;99.90;;;;;;15395792;23;20405;-37
2023/03/12 12:23:22;;;;;;;12.98;7.50;;;2.60;99.90;;;;;;15419832;23;20025;-38
2023/03/12 12:29:35;;;;;;;;;;;2.60;99.90;;;;;;15420128;23;20021;-38
2023/03/12 12:35:40;;;;;;;11.32;6.95;;;2.70;99.90;;;;;;15424096;23;19998;-39
2023/03/12 12:41:50;;;;;;;9.63;6.68;;;2.70;99.90;;;;;;15416907;23;20029;-36
2023/03/12 12:48:11;;;;;;;9.32;6.22;;;2.90;99.90;;;;;;15393998;23;20028;-38
2023/03/12 12:54:40;;;;;;;10.23;6.90;;;3.00;99.90;;;;;;15418823;23;20114;-38
2023/03/12 13:00:48;;;;;;;9.95;6.07;;;3.20;99.90;;;;;;15422307;23;20402;-37
2023/03/12 13:07:15;;;;;;;12.32;6.70;;;3.30;99.90;;;;;;15421761;23;20036;-38
2023/03/12 13:13:19;;;;;;;9.48;7.10;;;3.30;99.90;;;;;;15421183;23;20660;-38
2023/03/12 13:19:26;;;;;;;9.10;6.80;;;3.30;99.90;;;;;;15414898;23;20539;-38
2023/03/12 13:25:51;;;;;;;13.18;8.65;;;3.50;99.90;;;;;;15409944;23;20107;-39
2023/03/12 13:31:54;;;;;;;13.10;8.10;;;3.60;99.90;;;;;;15418837;23;20096;-38
2023/03/12 13:38:00;;;;;;;13.45;8.35;;;3.70;99.90;;;;;;15415242;23;20030;-38
2023/03/12 13:44:31;;;;;;;14.20;9.75;;;3.80;99.90;;;;;;15391392;23;20055;-38
2023/03/12 13:50:50;;;;;;;12.85;10.13;;;4.10;99.90;;;;;;15419380;23;20024;-38
2023/03/12 13:57:09;;;;;;;13.43;9.15;;;4.30;99.90;;;;;;15421746;23;20025;-38
2023/03/12 14:03:31;;;;;;;12.88;9.68;;;4.30;99.90;;;;;;15417915;23;20100;-38
2023/03/12 14:09:44;;;;;;;15.52;10.50;;;4.50;99.90;;;;;;15413567;23;20116;-38
2023/03/12 14:16:07;;;;;;;16.98;11.45;;;4.60;99.90;;;;;;15418389;23;20052;-37
2023/03/12 14:22:12;;;;;;;19.45;13.07;;;4.70;99.90;;;;;;15414971;23;20029;-38
2023/03/12 14:28:20;;;;;;;24.30;15.20;;;4.90;99.90;;;;;;15416944;23;20029;-39
2023/03/12 14:34:26;;;;;;;25.35;16.45;;;4.90;99.90;;;;;;15420094;23;20498;-38
2023/03/12 14:40:52;;;;;;;32.25;19.65;;;5.00;99.90;;;;;;15418802;23;20328;-38
2023/03/12 14:46:59;;;;;;;34.60;22.10;;;5.20;99.90;;;;;;15419188;23;20565;-39
2023/03/12 14:53:24;;;;;;;40.05;22.65;;;5.30;99.90;;;;;;15414202;23;20029;-37
2023/03/12 14:59:30;;;;;;;38.50;22.13;;;5.40;99.90;;;;;;15417474;23;20100;-38
2023/03/12 15:05:33;;;;;;;39.67;23.25;;;5.50;99.90;;;;;;15413430;23;20482;-37
2023/03/12 15:11:36;;;;;;;40.83;21.95;;;5.70;99.90;;;;;;15414643;23;20024;-37
2023/03/12 15:17:38;;;;;;;31.73;19.30;;;5.90;99.90;;;;;;15392368;23;20144;-37
2023/03/12 15:23:43;;;;;;;33.08;19.92;;;5.80;99.90;;;;;;15417471;23;20658;-40
2023/03/12 15:29:45;;;;;;;33.65;20.67;;;5.90;99.90;;;;;;15389936;23;20056;-38
2023/03/12 15:36:02;;;;;;;28.90;17.55;;;5.90;99.90;;;;;;15415544;23;20103;-38
2023/03/12 15:42:09;;;;;;;39.47;20.75;;;6.10;99.90;;;;;;15413393;23;20088;-38
2023/03/12 15:48:26;;;;;;;35.88;20.33;;;6.30;99.90;;;;;;15417220;23;20020;-40
2023/03/12 15:54:29;;;;;;;41.17;22.77;;;6.40;99.90;;;;;;15415542;23;20087;-38
2023/03/12 16:00:42;;;;;;;43.75;23.27;;;6.50;99.90;;;;;;15415300;23;20355;-38
2023/03/12 16:06:47;;;;;;;45.17;24.63;;;6.60;99.90;;;;;;15418916;23;20095;-38
2023/03/12 16:12:54;;;;;;;45.70;24.77;;;6.80;99.90;;;;;;15418362;23;20390;-39
2023/03/12 16:18:56;;;;;;;52.00;26.38;;;6.80;99.90;;;;;;15418355;23;20092;-38
2023/03/12 16:24:58;;;;;;;50.28;26.25;;;6.80;99.90;;;;;;15408936;23;20107;-38
2023/03/12 16:31:00;;;;;;;56.22;27.38;;;6.90;99.90;;;;;;15417777;23;20906;-38
2023/03/12 16:37:02;;;;;;;57.53;28.13;;;6.90;99.90;;;;;;15391308;23;20032;-39
2023/03/12 16:43:10;;;;;;;51.05;27.25;;;7.00;99.90;;;;;;15420137;23;20637;-37
2023/03/12 16:49:14;;;;;;;51.90;27.45;;;7.00;99.90;;;;;;15391656;23;20043;-38
2023/03/12 16:55:21;;;;;;;49.63;25.23;;;7.10;99.90;;;;;;15419592;23;20409;-38
2023/03/12 17:01:25;;;;;;;46.63;22.75;;;7.10;99.90;;;;;;15420734;23;20029;-38
2023/03/12 17:07:27;;;;;;;43.25;23.08;;;7.20;99.90;;;;;;15398983;23;20040;-38
2023/03/12 17:13:29;;;;;;;37.63;20.60;;;7.30;99.90;;;;;;15421176;23;20031;-37
2023/03/12 17:19:31;;;;;;;41.45;21.20;;;7.30;99.90;;;;;;15419585;23;20036;-37
2023/03/12 17:25:36;;;;;;;39.97;19.48;;;7.30;99.90;;;;;;15413332;23;20024;-38
2023/03/12 17:31:37;;;;;;;37.83;16.63;;;7.20;99.90;;;;;;15419677;23;20359;-38
2023/03/12 17:37:39;;;;;;;39.78;16.88;;;7.20;99.90;;;;;;15421600;23;20044;-38
2023/03/12 17:43:41;;;;;;;40.97;16.55;;;7.20;99.90;;;;;;15420944;23;20099;-38
2023/03/12 17:49:43;;;;;;;34.60;13.48;;;7.20;99.90;;;;;;15419953;23;20048;-40
2023/03/12 17:55:46;;;;;;;38.63;13.88;;;7.30;99.90;;;;;;15415199;23;20056;-38
2023/03/12 18:01:48;;;;;;;34.97;13.02;;;7.30;99.90;;;;;;15422720;23;20454;-38
2023/03/12 18:07:49;;;;;;;33.13;11.73;;;7.30;99.90;;;;;;15420996;23;20021;-38
2023/03/12 18:13:51;;;;;;;29.17;11.85;;;7.30;99.90;;;;;;15421195;23;20067;-37
2023/03/12 18:19:53;;;;;;;32.42;11.02;;;7.30;99.90;;;;;;15418654;23;20162;-38
2023/03/12 18:25:55;;;;;;;30.23;10.90;;;7.30;99.90;;;;;;15416998;23;20028;-38
2023/03/12 18:31:57;;;;;;;34.78;10.75;;;7.40;99.90;;;;;;15411699;23;20048;-38
2023/03/12 18:37:59;;;;;;;29.20;10.15;;;7.40;99.90;;;;;;15419800;23;20103;-38
2023/03/12 18:44:01;;;;;;;30.15;10.02;;;7.50;99.90;;;;;;15419798;23;20056;-38
2023/03/12 18:50:03;;;;;;;28.27;8.65;;;7.50;99.90;;;;;;15421862;23;20044;-38
2023/03/12 18:56:05;;;;;;;31.23;9.15;;;7.50;99.90;;;;;;15417359;23;20099;-38
2023/03/12 19:02:08;;;;;;;25.60;8.27;;;7.50;99.90;;;;;;15417405;23;20017;-38
2023/03/12 19:08:10;;;;;;;30.55;7.47;;;7.50;99.90;;;;;;15419450;23;20016;-38
2023/03/12 19:14:13;;;;;;;25.67;6.88;;;7.60;99.90;;;;;;15420965;23;20151;-39
2023/03/12 19:20:16;;;;;;;28.63;7.63;;;7.60;99.90;;;;;;15415351;23;20459;-38
2023/03/12 19:26:18;;;;;;;32.03;8.45;;;7.60;99.90;;;;;;15413006;23;20030;-39
2023/03/12 19:32:20;;;;;;;32.05;8.95;;;7.60;99.90;;;;;;15393085;23;20024;-39
2023/03/12 19:38:26;;;;;;;38.05;9.13;;;7.60;99.90;;;;;;15393714;23;20024;-38
2023/03/12 19:44:28;;;;;;;37.47;9.60;;;7.70;99.90;;;;;;15418058;23;20529;-38
2023/03/12 19:50:30;;;;;;;36.47;9.95;;;7.70;99.90;;;;;;15387229;23;20078;-37
2023/03/12 19:56:32;;;;;;;35.10;10.05;;;7.70;99.90;;;;;;15418818;23;20029;-37
2023/03/12 20:02:36;;;;;;;31.63;10.27;;;7.70;99.90;;;;;;15418294;23;20028;-38
2023/03/12 20:08:38;;;;;;;32.97;11.90;;;7.70;99.90;;;;;;15419433;23;20020;-38
2023/03/12 20:14:39;;;;;;;33.22;10.38;;;7.70;99.90;;;;;;15420780;23;20025;-38
2023/03/12 20:20:45;;;;;;;34.97;9.87;;;7.70;99.90;;;;;;15422284;23;20124;-38
2023/03/12 20:26:47;;;;;;;37.67;9.17;;;7.80;99.90;;;;;;15420166;23;20052;-38
2023/03/12 20:32:49;;;;;;;39.90;9.15;;;7.90;99.90;;;;;;15419050;23;20399;-38
2023/03/12 20:38:51;;;;;;;25.00;7.00;;;8.00;99.90;;;;;;15418498;23;20028;-39
2023/03/12 20:44:52;;;;;;;32.60;7.60;;;8.00;99.90;;;;;;15419007;23;20051;-38
2023/03/12 20:50:54;;;;;;;37.03;7.43;;;8.00;99.90;;;;;;15421300;23;20083;-38
2023/03/12 20:56:57;;;;;;;38.92;6.00;;;8.10;99.90;;;;;;15417626;23;20021;-38
2023/03/12 21:03:01;;;;;;;28.25;5.93;;;8.10;99.90;;;;;;15394277;23;20021;-38
2023/03/12 21:09:03;;;;;;;29.42;5.28;;;8.20;99.90;;;;;;15422156;23;20039;-38
2023/03/12 21:15:11;;;;;;;41.35;6.05;;;8.20;99.90;;;;;;15422131;23;20397;-38
2023/03/12 21:21:13;;;;;;;35.90;4.97;;;8.30;99.90;;;;;;15416702;23;20060;-38
2023/03/12 21:27:15;;;;;;;23.67;4.70;;;8.30;99.90;;;;;;15415672;23;20024;-38
2023/03/12 21:33:26;;;;;;;32.58;5.15;;;8.20;99.90;;;;;;15419843;23;20027;-37
2023/03/12 21:39:27;;;;;;;32.90;4.75;;;8.20;99.90;;;;;;15420643;23;20151;-38
2023/03/12 21:45:30;;;;;;;24.33;4.30;;;8.20;99.90;;;;;;15417671;23;20035;-37
2023/03/12 21:51:31;;;;;;;24.42;4.32;;;8.20;99.90;;;;;;15416859;23;20027;-38
2023/03/12 21:57:34;;;;;;;30.58;5.15;;;8.20;99.90;;;;;;15421153;23;20083;-38
2023/03/12 22:03:36;;;;;;;29.15;4.88;;;8.30;99.90;;;;;;15410742;23;20049;-38
2023/03/12 22:09:38;;;;;;;25.55;3.85;;;8.30;99.90;;;;;;15392129;23;20024;-37
2023/03/12 22:15:40;;;;;;;26.17;4.38;;;8.40;99.90;;;;;;15417449;23;20367;-38
2023/03/12 22:21:43;;;;;;;27.77;4.07;;;8.50;99.90;;;;;;15386133;23;20032;-38
2023/03/12 22:27:45;;;;;;;33.10;6.32;;;8.50;99.90;;;;;;15392962;23;20096;-38
2023/03/12 22:33:47;;;;;;;24.38;4.20;;;8.50;99.90;;;;;;15414126;23;20033;-37
2023/03/12 22:39:50;;;;;;;19.27;3.83;;;8.40;99.90;;;;;;15412652;23;20043;-38
2023/03/12 22:45:53;;;;;;;21.65;4.78;;;8.40;99.90;;;;;;15418594;23;20031;-38
2023/03/12 22:51:55;;;;;;;23.42;3.72;;;8.40;99.90;;;;;;15392099;23;20107;-38
2023/03/12 22:57:57;;;;;;;26.15;4.18;;;8.40;99.90;;;;;;15415051;23;20099;-37
2023/03/12 23:03:59;;;;;;;28.20;4.50;;;8.30;99.90;;;;;;15417450;23;20031;-37
2023/03/12 23:10:02;;;;;;;27.02;4.90;;;8.20;99.90;;;;;;15417549;23;20071;-38
2023/03/12 23:16:09;;;;;;;29.83;5.13;;;8.30;99.90;;;;;;15411788;23;20352;-37
2023/03/12 23:22:11;;;;;;;20.60;3.78;;;8.30;99.90;;;;;;15421214;23;20343;-38
2023/03/12 23:28:13;;;;;;;27.00;3.97;;;8.40;99.90;;;;;;15416040;23;20564;-37
2023/03/12 23:34:15;;;;;;;26.45;4.28;;;8.40;99.90;;;;;;15413020;23;20066;-37
2023/03/12 23:40:17;;;;;;;23.02;3.75;;;8.50;99.90;;;;;;15417961;23;20025;-37
2023/03/12 23:46:19;;;;;;;21.65;4.00;;;8.50;99.90;;;;;;15419363;23;20354;-38
2023/03/12 23:52:25;;;;;;;19.70;4.03;;;8.50;99.90;;;;;;15395393;23;20025;-38
2023/03/12 23:58:28;;;;;;;24.85;3.40;;;8.50;99.90;;;;;;15423783;23;20191;-37
